Time;durP1;ratioP1;P1;durP2;ratioP2;P2;SDS_P1;SDS_P2;PMS_P1;PMS_P2;Temp;Humidity;BMP_temperature;BMP_pressure;BME280_temperature;BME280_humidity;BME280_pressure;Samples;Min_cycle;Max_cycle;Signal;HPM_P1;HPM_P2
2022/01/30 00:00:50;;;;;;;0.20;0.20;;;11.80;70.60;11.70;96950.00;;;;4994788;28;20194;-93
2022/01/30 00:03:17;;;;;;;0.20;0.20;;;11.80;70.60;11.70;96948.00;;;;4994526;28;20194;-92
2022/01/30 00:05:44;;;;;;;0.10;0.10;;;11.70;70.50;11.70;96941.00;;;;5000796;28;20229;-92
2022/01/30 00:08:11;;;;;;;0.10;0.10;;;11.80;70.80;11.70;96956.00;;;;5013440;28;20697;-91
2022/01/30 00:10:40;;;;;;;0.40;0.40;;;11.80;71.00;11.70;96971.00;;;;4995221;28;20201;-92
2022/01/30 00:13:12;;;;;;;0.23;0.20;;;11.80;71.10;11.80;96976.00;;;;4999548;28;20199;-91
2022/01/30 00:18:19;;;;;;;0.20;0.20;;;11.70;70.80;11.80;96962.00;;;;5029727;23;20221;-89
2022/01/30 00:20:59;;;;;;;0.20;0.20;;;11.80;71.10;11.80;96947.00;;;;5010463;28;20205;-88
2022/01/30 00:23:28;;;;;;;0.20;0.20;;;11.80;71.30;11.80;96944.00;;;;5012466;28;20207;-88
2022/01/30 00:25:58;;;;;;;0.30;0.20;;;12.20;71.50;11.80;96965.00;;;;5008492;28;20198;-89
2022/01/30 00:28:26;;;;;;;0.17;0.17;;;11.70;71.40;11.80;96962.00;;;;5010076;28;20564;-89
2022/01/30 00:30:55;;;;;;;0.57;0.20;;;11.80;71.40;11.90;96973.00;;;;5012577;28;20194;-88
2022/01/30 00:33:22;;;;;;;0.20;0.20;;;11.80;71.60;11.90;96973.00;;;;5011769;28;20252;-89
2022/01/30 00:35:49;;;;;;;0.50;0.30;;;11.80;71.70;11.90;96963.00;;;;5012203;28;20289;-89
2022/01/30 00:38:19;;;;;;;0.20;0.20;;;11.80;71.60;11.90;96973.00;;;;5011570;28;20225;-87
2022/01/30 00:40:47;;;;;;;0.30;0.20;;;11.80;71.60;11.90;96966.00;;;;5012084;28;20610;-88
2022/01/30 00:43:17;;;;;;;0.30;0.20;;;11.80;71.50;11.90;96970.00;;;;5010926;28;20198;-87
2022/01/30 00:45:44;;;;;;;0.20;0.20;;;11.80;71.60;11.90;96974.00;;;;5011773;28;20573;-88
2022/01/30 00:48:11;;;;;;;0.40;0.20;;;11.90;71.80;11.90;96970.00;;;;5011511;28;20690;-88
2022/01/30 00:50:39;;;;;;;0.47;0.20;;;11.80;71.40;11.90;96983.00;;;;5011687;28;20293;-88
2022/01/30 00:53:07;;;;;;;0.20;0.20;;;12.00;71.70;11.90;96961.00;;;;5012537;28;20277;-89
2022/01/30 00:55:34;;;;;;;0.30;0.30;;;11.70;72.30;11.90;96945.00;;;;5011054;28;20667;-87
2022/01/30 00:58:02;;;;;;;0.20;0.10;;;11.80;71.20;11.90;96959.00;;;;5011955;28;20232;-88
2022/01/30 01:00:32;;;;;;;0.10;0.10;;;11.90;71.60;12.00;96960.00;;;;5011016;28;20197;-88
2022/01/30 01:02:59;;;;;;;0.40;0.17;;;11.90;71.20;11.90;96956.00;;;;4992904;28;20660;-87
2022/01/30 01:05:27;;;;;;;0.20;0.20;;;11.90;71.20;11.90;96946.00;;;;5002596;28;20586;-88
2022/01/30 01:07:56;;;;;;;0.20;0.20;;;11.90;71.50;12.00;96943.00;;;;5010815;28;20228;-89
2022/01/30 01:10:32;;;;;;;0.17;0.17;;;11.90;71.50;12.00;96943.00;;;;5002626;28;20203;-88
2022/01/30 01:13:20;;;;;;;0.10;0.10;;;11.90;71.40;11.90;96952.00;;;;5006460;28;20205;-88
2022/01/30 01:24:06;;;;;;;0.20;0.20;;;11.90;71.70;11.80;96954.00;;;;5005134;28;20256;-88
2022/01/30 01:26:36;;;;;;;0.20;0.20;;;11.80;71.70;11.80;96962.00;;;;5015736;28;20213;-88
2022/01/30 01:29:04;;;;;;;0.10;0.10;;;11.80;71.70;11.90;96961.00;;;;5015324;28;20198;-88
2022/01/30 01:31:33;;;;;;;0.17;0.10;;;11.80;71.80;11.90;96954.00;;;;5015300;28;20228;-87
2022/01/30 01:34:13;;;;;;;0.20;0.20;;;11.80;71.90;11.80;96964.00;;;;5015805;28;20209;-88
2022/01/30 01:36:40;;;;;;;0.30;0.30;;;11.80;72.00;11.80;96969.00;;;;5015214;28;20339;-88
2022/01/30 01:39:07;;;;;;;0.13;0.13;;;11.80;71.70;11.80;96955.00;;;;5014842;28;20224;-88
2022/01/30 01:41:36;;;;;;;0.10;0.10;;;11.80;71.90;11.80;96962.00;;;;5015014;28;20208;-87
2022/01/30 01:44:04;;;;;;;0.87;0.30;;;11.80;72.00;11.80;96969.00;;;;5014558;28;20618;-87
2022/01/30 01:46:35;;;;;;;0.20;0.20;;;11.80;72.00;11.80;96975.00;;;;5014987;28;20224;-87
2022/01/30 01:49:02;;;;;;;0.20;0.20;;;11.90;72.10;11.80;96972.00;;;;5015745;28;20206;-86
2022/01/30 01:51:31;;;;;;;0.73;0.13;;;11.70;72.90;11.80;96962.00;;;;5014865;28;20229;-87
2022/01/30 01:54:00;;;;;;;0.20;0.20;;;11.70;72.30;11.70;96957.00;;;;5015134;28;20567;-86
2022/01/30 01:56:30;;;;;;;0.60;0.20;;;11.70;72.40;11.70;96951.00;;;;5014520;28;20217;-87
2022/01/30 01:58:57;;;;;;;0.27;0.27;;;11.80;72.30;11.70;96937.00;;;;5013345;28;20261;-87
2022/01/30 02:01:26;;;;;;;0.20;0.20;;;11.70;72.40;11.70;96928.00;;;;5013183;28;20222;-86
2022/01/30 02:03:55;;;;;;;0.10;0.10;;;11.70;72.60;11.60;96928.00;;;;5014487;28;20248;-87
2022/01/30 02:06:25;;;;;;;0.10;0.10;;;11.60;72.80;11.60;96936.00;;;;5014792;28;20214;-87
2022/01/30 02:08:56;;;;;;;0.20;0.20;;;11.70;73.10;11.60;96930.00;;;;5014562;28;20261;-87
2022/01/30 02:11:33;;;;;;;0.30;0.10;;;11.60;73.00;11.50;96933.00;;;;5012514;28;20708;-88
2022/01/30 02:25:18;;;;;;;0.20;0.20;;;11.50;73.60;11.40;96922.00;;;;5012616;28;20232;-87
2022/01/30 02:27:46;;;;;;;0.20;0.20;;;11.40;73.80;11.40;96917.00;;;;5025564;28;20213;-87
2022/01/30 02:30:19;;;;;;;0.20;0.20;;;11.40;73.80;11.30;96922.00;;;;5029873;28;20196;-87
2022/01/30 02:32:47;;;;;;;0.27;0.27;;;11.40;74.00;11.30;96926.00;;;;5035226;28;20236;-87
2022/01/30 02:35:15;;;;;;;0.20;0.20;;;11.30;74.10;11.30;96920.00;;;;5019486;28;20206;-86
2022/01/30 02:37:43;;;;;;;0.57;0.27;;;11.30;74.20;11.30;96915.00;;;;5024397;28;20309;-87
2022/01/30 02:40:13;;;;;;;0.20;0.20;;;11.30;74.40;11.30;96901.00;;;;5014664;28;20707;-86
2022/01/30 02:42:46;;;;;;;0.20;0.20;;;11.30;74.50;11.20;96906.00;;;;5024971;28;20260;-87
2022/01/30 02:45:15;;;;;;;0.20;0.20;;;11.20;74.40;11.20;96912.00;;;;5027254;28;20198;-87
2022/01/30 02:47:52;;;;;;;0.20;0.20;;;11.20;74.40;11.20;96912.00;;;;5017611;28;20264;-87
2022/01/30 02:50:31;;;;;;;0.20;0.20;;;11.20;74.50;11.20;96923.00;;;;5020959;28;20673;-87
2022/01/30 02:53:03;;;;;;;0.23;0.17;;;11.20;74.50;11.20;96928.00;;;;5023731;28;20205;-87
2022/01/30 02:55:30;;;;;;;0.20;0.20;;;11.20;74.50;11.10;96912.00;;;;5027066;28;20221;-87
2022/01/30 02:57:57;;;;;;;1.10;0.20;;;11.10;74.70;11.10;96891.00;;;;5021264;28;20222;-87
2022/01/30 03:00:24;;;;;;;0.23;0.23;;;11.10;74.80;11.10;96912.00;;;;5015902;28;20222;-86
2022/01/30 03:02:51;;;;;;;0.20;0.20;;;11.10;74.70;11.10;96920.00;;;;5005792;28;20579;-88
2022/01/30 03:05:18;;;;;;;0.10;0.10;;;11.10;74.80;11.20;96925.00;;;;5011360;28;20204;-87
2022/01/30 03:07:45;;;;;;;0.20;0.20;;;11.10;74.80;11.20;96926.00;;;;5014551;28;20217;-87
2022/01/30 03:10:14;;;;;;;0.10;0.10;;;11.10;74.80;11.10;96929.00;;;;5014228;28;20209;-87
2022/01/30 03:12:42;;;;;;;0.30;0.30;;;11.00;74.80;11.10;96935.00;;;;5014023;28;20217;-87
2022/01/30 03:15:10;;;;;;;0.20;0.20;;;11.20;75.00;11.20;96935.00;;;;5013648;28;20277;-87
2022/01/30 03:17:37;;;;;;;0.20;0.20;;;11.10;75.00;11.20;96948.00;;;;5014694;28;20230;-87
2022/01/30 03:20:06;;;;;;;0.43;0.23;;;11.20;75.10;11.10;96952.00;;;;5014001;28;20214;-88
2022/01/30 03:22:34;;;;;;;0.20;0.20;;;11.10;75.00;11.20;96966.00;;;;5014162;28;20204;-88
2022/01/30 03:25:01;;;;;;;0.33;0.20;;;11.10;75.20;11.20;96952.00;;;;5013855;28;20198;-86
2022/01/30 03:27:30;;;;;;;0.10;0.10;;;11.10;75.20;11.20;96944.00;;;;5009307;28;20225;-88
2022/01/30 03:30:04;;;;;;;0.30;0.27;;;11.10;75.20;11.20;96940.00;;;;5006181;28;20297;-87
2022/01/30 03:32:31;;;;;;;0.27;0.27;;;11.30;75.40;11.20;96952.00;;;;5014497;28;20200;-87
2022/01/30 03:34:58;;;;;;;0.27;0.27;;;11.10;75.30;11.20;96953.00;;;;5007951;28;20656;-87
2022/01/30 03:37:26;;;;;;;0.20;0.20;;;11.20;75.40;11.20;96954.00;;;;4994265;28;20229;-87
2022/01/30 03:39:53;;;;;;;0.60;0.30;;;11.10;75.30;11.20;96955.00;;;;5011091;28;20230;-87
2022/01/30 03:42:20;;;;;;;1.23;0.20;;;11.10;75.50;11.10;96944.00;;;;5013662;28;20316;-88
2022/01/30 03:44:48;;;;;;;0.27;0.20;;;11.10;75.70;11.10;96961.00;;;;5012849;28;20204;-87
2022/01/30 03:47:15;;;;;;;0.20;0.10;;;11.10;75.80;11.10;96953.00;;;;5013865;28;20210;-87
2022/01/30 03:49:42;;;;;;;0.10;0.10;;;11.10;75.80;11.10;96964.00;;;;5013345;28;20206;-86
2022/01/30 03:52:10;;;;;;;0.20;0.10;;;11.10;75.80;11.10;96950.00;;;;5013512;28;20194;-86
2022/01/30 03:54:37;;;;;;;0.57;0.27;;;11.10;76.00;11.10;96945.00;;;;5012977;28;20750;-86
2022/01/30 03:57:05;;;;;;;0.57;0.30;;;11.10;76.20;11.00;96964.00;;;;5011955;28;20222;-86
2022/01/30 03:59:32;;;;;;;0.20;0.20;;;11.10;76.20;11.00;96953.00;;;;4994281;28;20234;-87
2022/01/30 04:02:01;;;;;;;0.30;0.30;;;11.50;76.50;11.00;96936.00;;;;5012764;28;20194;-87
2022/01/30 04:04:28;;;;;;;0.20;0.20;;;11.00;76.20;11.00;96952.00;;;;5011465;28;20205;-87
2022/01/30 04:06:58;;;;;;;0.30;0.30;;;11.00;76.20;11.00;96944.00;;;;5010955;28;20220;-87
2022/01/30 04:09:26;;;;;;;0.30;0.30;;;11.00;76.30;11.00;96941.00;;;;5013334;28;20213;-87
2022/01/30 04:11:54;;;;;;;0.20;0.20;;;11.00;76.40;10.90;96953.00;;;;5013613;28;20345;-87
2022/01/30 04:14:21;;;;;;;0.20;0.20;;;11.00;76.50;10.90;96951.00;;;;5012813;28;20292;-87
2022/01/30 04:16:49;;;;;;;0.40;0.30;;;10.90;76.80;10.90;96942.00;;;;5013122;28;20229;-87
2022/01/30 04:19:18;;;;;;;0.30;0.30;;;11.00;77.00;10.90;96944.00;;;;5012816;28;20210;-87
2022/01/30 04:21:45;;;;;;;0.30;0.30;;;11.00;77.00;10.90;96939.00;;;;5014744;28;20284;-87
2022/01/30 04:24:12;;;;;;;0.50;0.50;;;11.00;77.10;11.00;96955.00;;;;5015266;28;20198;-87
2022/01/30 04:26:39;;;;;;;0.33;0.20;;;11.60;77.40;11.00;96953.00;;;;5019369;28;20726;-87
2022/01/30 04:29:07;;;;;;;1.70;0.20;;;11.00;77.00;11.00;96971.00;;;;5009432;28;20198;-87
2022/01/30 04:31:35;;;;;;;0.37;0.30;;;11.00;77.10;11.00;96951.00;;;;5012915;28;20664;-88
2022/01/30 04:34:03;;;;;;;0.97;0.30;;;11.00;77.10;10.90;96964.00;;;;5012046;28;20198;-88
2022/01/30 04:36:38;;;;;;;0.20;0.20;;;10.90;77.20;10.90;96976.00;;;;4994759;28;20340;-88
2022/01/30 04:39:14;;;;;;;0.30;0.20;;;10.90;77.30;10.90;96965.00;;;;5012906;28;20606;-88
2022/01/30 04:42:05;;;;;;;0.33;0.30;;;10.90;77.50;10.80;96961.00;;;;5013487;28;20577;-88
2022/01/30 04:53:17;;;;;;;0.30;0.20;;;10.80;78.30;10.70;96983.00;;;;4980975;28;20641;-87
2022/01/30 04:58:29;;;;;;;0.30;0.30;;;10.70;78.70;10.70;96999.00;;;;4980724;28;20210;-86
2022/01/30 05:01:10;;;;;;;0.20;0.20;;;10.70;78.90;10.60;96989.00;;;;4989867;28;20198;-88
2022/01/30 05:03:51;;;;;;;0.20;0.20;;;10.70;79.20;10.60;96988.00;;;;4996260;28;20194;-87
2022/01/30 05:06:30;;;;;;;0.30;0.30;;;10.70;79.30;10.60;97003.00;;;;4993476;28;20221;-87
2022/01/30 05:08:59;;;;;;;0.30;0.30;;;10.60;79.20;10.60;97009.00;;;;4992235;28;20205;-87
2022/01/30 05:11:26;;;;;;;0.97;0.53;;;10.60;79.40;10.60;97008.00;;;;4990837;28;20198;-86
2022/01/30 05:13:54;;;;;;;0.30;0.30;;;10.60;79.40;10.60;97008.00;;;;4995218;28;20198;-86
2022/01/30 05:16:23;;;;;;;1.37;0.40;;;10.60;79.50;10.60;97006.00;;;;4998865;28;20245;-86
2022/01/30 05:18:51;;;;;;;0.30;0.30;;;10.60;79.50;10.60;96999.00;;;;4992921;28;20647;-86
2022/01/30 05:21:20;;;;;;;0.20;0.20;;;10.60;79.70;10.60;96996.00;;;;5000377;28;20205;-88
2022/01/30 05:23:48;;;;;;;0.13;0.13;;;10.60;79.70;10.50;97000.00;;;;5003355;28;20235;-88
2022/01/30 05:26:22;;;;;;;0.30;0.20;;;10.60;79.60;10.50;96986.00;;;;5011543;28;20256;-88
2022/01/30 05:28:49;;;;;;;0.30;0.30;;;10.60;79.60;10.50;96974.00;;;;5011923;28;20293;-87
2022/01/30 05:31:17;;;;;;;0.40;0.20;;;10.60;79.60;10.50;96984.00;;;;5003892;28;20202;-88
2022/01/30 05:33:45;;;;;;;0.40;0.20;;;10.60;79.70;10.50;96980.00;;;;4982887;28;20217;-87
2022/01/30 05:36:13;;;;;;;0.20;0.20;;;10.60;79.70;10.60;96974.00;;;;4981847;28;21118;-87
2022/01/30 05:38:41;;;;;;;0.30;0.10;;;10.50;79.80;10.50;96968.00;;;;4978701;28;20190;-88
2022/01/30 05:41:09;;;;;;;0.20;0.20;;;10.60;79.90;10.50;96974.00;;;;4976896;28;20202;-87
2022/01/30 05:43:38;;;;;;;1.60;0.27;;;10.60;79.90;10.50;96958.00;;;;4974690;28;20588;-86
2022/01/30 05:46:09;;;;;;;0.20;0.20;;;10.60;80.00;10.50;96955.00;;;;4971617;28;20531;-86
2022/01/30 05:48:37;;;;;;;0.30;0.30;;;10.60;80.00;10.50;96957.00;;;;4971449;28;20207;-86
2022/01/30 05:51:04;;;;;;;0.17;0.17;;;10.50;80.00;10.50;96960.00;;;;4976688;28;20209;-86
2022/01/30 05:53:32;;;;;;;1.20;0.80;;;10.50;80.00;10.50;96969.00;;;;4983733;28;20205;-88
2022/01/30 05:55:59;;;;;;;0.67;0.40;;;10.50;79.90;10.50;96965.00;;;;4978547;28;20210;-87
2022/01/30 05:58:26;;;;;;;0.33;0.33;;;10.50;80.00;10.50;96976.00;;;;4982351;28;20194;-87
2022/01/30 06:00:54;;;;;;;1.00;0.50;;;10.60;80.10;10.60;96984.00;;;;4988077;28;20244;-86
2022/01/30 06:03:22;;;;;;;1.43;0.50;;;10.50;80.10;10.60;96998.00;;;;4997991;28;20226;-86
2022/01/30 06:05:49;;;;;;;0.80;0.60;;;10.50;79.90;10.60;96990.00;;;;5006132;28;20202;-86
2022/01/30 06:08:38;;;;;;;0.40;0.40;;;10.90;80.10;10.50;96993.00;;;;5014989;28;20194;-86
2022/01/30 06:11:03;;;;;;;0.40;0.40;;;10.50;79.70;10.50;96980.00;;;;5015073;28;20617;-86
2022/01/30 06:13:31;;;;;;;0.73;0.50;;;10.50;79.80;10.50;96998.00;;;;5015095;28;20194;-86
2022/01/30 06:16:00;;;;;;;0.57;0.50;;;10.50;79.70;10.50;97002.00;;;;5014919;28;20202;-87
2022/01/30 06:18:27;;;;;;;0.83;0.50;;;10.50;79.70;10.50;97006.00;;;;5043876;22;20229;-85
2022/01/30 06:20:55;;;;;;;0.50;0.40;;;10.50;79.70;10.50;97011.00;;;;5005249;28;20218;-86
2022/01/30 06:23:26;;;;;;;0.40;0.40;;;10.50;79.50;10.50;97028.00;;;;5011335;28;20217;-86
2022/01/30 06:25:53;;;;;;;0.40;0.40;;;10.50;79.40;10.50;97015.00;;;;5014992;28;20262;-86
2022/01/30 06:28:21;;;;;;;0.57;0.57;;;10.50;79.50;10.50;97025.00;;;;5014747;28;20260;-85
2022/01/30 06:30:48;;;;;;;0.70;0.50;;;10.50;79.40;10.50;97032.00;;;;5014992;28;20201;-85
2022/01/30 06:33:17;;;;;;;1.53;0.60;;;10.50;79.80;10.50;97036.00;;;;4999626;28;20203;-85
2022/01/30 06:35:44;;;;;;;1.23;0.47;;;10.50;78.40;10.40;97027.00;;;;5009817;28;20655;-86
2022/01/30 06:38:11;;;;;;;0.80;0.70;;;10.50;78.60;10.40;97036.00;;;;5004946;28;20193;-86
2022/01/30 06:40:38;;;;;;;0.70;0.70;;;10.50;78.70;10.40;97027.00;;;;5014109;28;20305;-86
2022/01/30 06:43:05;;;;;;;0.70;0.60;;;10.50;78.70;10.40;97044.00;;;;5005799;28;20285;-86
2022/01/30 06:45:34;;;;;;;1.43;0.60;;;10.50;78.40;10.30;97030.00;;;;4995796;28;20194;-85
2022/01/30 06:48:07;;;;;;;1.40;0.80;;;10.40;78.70;10.40;97039.00;;;;4995593;28;20211;-85
2022/01/30 06:50:38;;;;;;;0.93;0.90;;;10.40;79.90;10.50;97042.00;;;;4995311;28;20210;-85
2022/01/30 06:53:05;;;;;;;0.63;0.63;;;10.50;79.20;10.60;97043.00;;;;4995546;28;20528;-84
2022/01/30 06:55:33;;;;;;;0.80;0.50;;;10.50;79.10;10.60;97060.00;;;;5029977;28;20260;-85
2022/01/30 06:58:09;;;;;;;2.90;0.90;;;10.50;78.80;10.60;97050.00;;;;4994772;28;20203;-85
2022/01/30 07:00:37;;;;;;;1.13;0.70;;;10.50;78.60;10.60;97066.00;;;;5006041;28;20225;-85
2022/01/30 07:03:04;;;;;;;1.17;0.63;;;10.50;78.60;10.60;97070.00;;;;4995013;28;20229;-86
2022/01/30 07:05:31;;;;;;;0.90;0.67;;;10.50;78.50;10.60;97060.00;;;;4995130;28;20203;-85
2022/01/30 07:08:00;;;;;;;0.80;0.70;;;10.50;78.00;10.60;97073.00;;;;4995112;28;20218;-85
2022/01/30 07:10:27;;;;;;;0.80;0.80;;;10.50;78.10;10.50;97074.00;;;;4994756;28;20293;-86
2022/01/30 07:12:54;;;;;;;0.90;0.77;;;10.50;78.20;10.60;97072.00;;;;4994633;28;20211;-85
2022/01/30 07:15:27;;;;;;;0.97;0.70;;;10.50;78.20;10.60;97083.00;;;;4993973;28;20199;-85
2022/01/30 07:17:54;;;;;;;4.53;0.80;;;10.50;78.20;10.60;97091.00;;;;5004697;28;20206;-85
2022/01/30 07:20:24;;;;;;;0.80;0.80;;;10.50;78.30;10.60;97092.00;;;;5014055;28;20304;-85
2022/01/30 07:22:51;;;;;;;1.70;0.70;;;10.60;78.40;10.60;97089.00;;;;5001257;28;20230;-86
2022/01/30 07:25:23;;;;;;;2.50;1.17;;;10.50;78.00;10.60;97098.00;;;;5009395;28;20198;-86
2022/01/30 07:27:56;;;;;;;1.80;0.90;;;10.50;78.00;10.60;97096.00;;;;5007061;28;20206;-86
2022/01/30 07:30:29;;;;;;;1.03;0.80;;;10.50;78.20;10.60;97096.00;;;;4994860;28;20199;-86
2022/01/30 07:33:04;;;;;;;2.40;1.10;;;10.60;78.30;10.70;97105.00;;;;4994326;28;20223;-85
2022/01/30 07:35:45;;;;;;;2.30;1.07;;;10.60;78.20;10.70;97103.00;;;;4995165;28;20285;-86
2022/01/30 07:38:13;;;;;;;1.40;0.80;;;10.60;78.00;10.70;97106.00;;;;4994965;28;20183;-85
2022/01/30 07:40:47;;;;;;;1.50;0.70;;;10.60;78.10;10.70;97098.00;;;;4994401;28;20663;-86
2022/01/30 07:43:19;;;;;;;2.40;0.97;;;10.60;78.10;10.80;97095.00;;;;5001957;28;20199;-85
2022/01/30 07:45:49;;;;;;;1.77;1.00;;;10.70;78.00;10.80;97095.00;;;;4994228;28;20692;-84
2022/01/30 07:48:21;;;;;;;1.13;0.90;;;10.70;77.70;10.80;97095.00;;;;4994343;28;20612;-85
2022/01/30 07:50:51;;;;;;;1.73;0.83;;;10.70;77.60;10.80;97100.00;;;;4997257;28;20194;-84
2022/01/30 07:53:21;;;;;;;2.83;1.00;;;10.70;77.80;10.80;97122.00;;;;5013171;28;20205;-83
2022/01/30 07:55:54;;;;;;;2.03;0.87;;;10.70;78.00;10.80;97113.00;;;;5000005;28;20555;-84
2022/01/30 07:58:22;;;;;;;3.07;1.00;;;10.70;77.90;10.80;97122.00;;;;5013039;28;20256;-85
2022/01/30 08:00:54;;;;;;;0.90;0.90;;;10.70;78.10;10.80;97112.00;;;;5012140;28;20224;-86
2022/01/30 08:03:22;;;;;;;1.60;1.03;;;10.70;78.10;10.80;97109.00;;;;5013639;28;20667;-82
2022/01/30 08:05:55;;;;;;;2.40;0.90;;;10.70;78.10;10.70;97094.00;;;;5007997;28;20194;-84
2022/01/30 08:08:31;;;;;;;1.93;1.00;;;10.70;77.80;10.70;97089.00;;;;4993380;28;20195;-83
2022/01/30 08:10:59;;;;;;;2.77;0.80;;;10.60;77.80;10.60;97091.00;;;;4999176;28;20217;-84
2022/01/30 08:13:27;;;;;;;0.70;0.67;;;10.60;77.80;10.60;97086.00;;;;4996699;28;20694;-84
2022/01/30 08:15:56;;;;;;;0.80;0.60;;;10.60;77.90;10.50;97090.00;;;;5005299;28;20348;-85
2022/01/30 08:18:23;;;;;;;1.43;0.63;;;10.50;78.00;10.50;97087.00;;;;5010050;28;20666;-85
2022/01/30 08:20:50;;;;;;;2.87;1.07;;;10.50;77.90;10.50;97075.00;;;;4993527;28;20254;-85
2022/01/30 08:23:19;;;;;;;1.10;0.80;;;10.50;78.00;10.50;97090.00;;;;4996848;28;20285;-85
2022/01/30 08:25:46;;;;;;;2.07;0.90;;;10.50;78.10;10.50;97108.00;;;;5019497;28;20198;-82
2022/01/30 08:28:15;;;;;;;2.23;1.20;;;10.40;78.10;10.40;97123.00;;;;5013332;28;20651;-83
2022/01/30 08:30:45;;;;;;;3.90;1.30;;;10.40;77.50;10.40;97129.00;;;;4993247;28;20194;-83
2022/01/30 08:33:16;;;;;;;2.10;1.20;;;10.40;77.30;10.30;97112.00;;;;5002795;28;20217;-82
2022/01/30 08:35:47;;;;;;;3.53;1.10;;;10.40;76.90;10.20;97109.00;;;;5011442;28;20201;-83
2022/01/30 08:38:17;;;;;;;4.63;1.67;;;10.30;76.80;10.10;97123.00;;;;5020802;28;20269;-84
2022/01/30 08:40:47;;;;;;;2.57;1.40;;;10.20;76.90;10.10;97147.00;;;;5012283;28;20647;-83
2022/01/30 08:43:22;;;;;;;3.20;1.63;;;10.20;77.20;10.00;97152.00;;;;5011396;28;20643;-84
2022/01/30 08:46:04;;;;;;;2.73;1.67;;;10.10;77.30;10.00;97161.00;;;;4992675;28;20368;-83
2022/01/30 08:48:37;;;;;;;5.27;1.70;;;10.10;77.40;10.00;97163.00;;;;4993099;28;20214;-83
2022/01/30 08:51:04;;;;;;;3.43;1.37;;;10.00;77.40;9.90;97182.00;;;;4992915;28;20218;-84
2022/01/30 08:53:33;;;;;;;5.20;1.70;;;10.00;77.50;9.90;97185.00;;;;4993062;28;20627;-83
2022/01/30 08:56:01;;;;;;;4.37;1.80;;;10.00;77.60;9.90;97182.00;;;;4991474;28;20219;-84
2022/01/30 08:58:33;;;;;;;3.13;1.63;;;9.90;77.70;9.90;97193.00;;;;5012151;28;20721;-85
2022/01/30 09:01:00;;;;;;;5.03;1.53;;;9.90;77.90;9.90;97194.00;;;;5012408;28;20317;-85
2022/01/30 09:03:30;;;;;;;4.07;1.70;;;9.90;77.90;9.90;97197.00;;;;4993908;28;20286;-84
2022/01/30 09:05:57;;;;;;;3.30;1.70;;;9.90;77.80;9.90;97196.00;;;;5001595;28;20190;-84
2022/01/30 09:08:25;;;;;;;3.10;1.80;;;9.90;77.80;9.90;97193.00;;;;5001848;28;20224;-84
2022/01/30 09:10:57;;;;;;;5.63;2.00;;;9.90;77.70;9.90;97192.00;;;;5017827;28;20209;-82
2022/01/30 09:13:28;;;;;;;1.97;1.37;;;9.90;77.60;10.00;97201.00;;;;5024141;28;20210;-84
2022/01/30 09:16:01;;;;;;;3.47;1.63;;;9.90;78.10;10.00;97207.00;;;;5003226;28;20206;-82
2022/01/30 09:18:30;;;;;;;3.73;1.60;;;9.90;78.20;10.10;97210.00;;;;4999868;28;20207;-84
2022/01/30 09:20:58;;;;;;;4.57;1.83;;;9.90;78.10;10.20;97206.00;;;;5008967;28;20297;-84
2022/01/30 09:23:41;;;;;;;3.93;1.60;;;10.00;78.60;10.30;97209.00;;;;5000822;28;20206;-83
2022/01/30 09:26:09;;;;;;;3.43;1.50;;;10.10;78.80;10.50;97210.00;;;;4997669;28;20539;-84
2022/01/30 09:28:41;;;;;;;3.83;2.13;;;10.20;79.10;10.60;97218.00;;;;5013867;28;20206;-84
2022/01/30 09:31:11;;;;;;;5.87;2.03;;;10.30;79.40;10.80;97207.00;;;;5012294;28;20300;-85
2022/01/30 09:33:38;;;;;;;7.27;1.73;;;10.50;79.30;10.90;97216.00;;;;5012138;28;20820;-84
2022/01/30 09:36:08;;;;;;;6.63;1.73;;;10.60;78.90;11.00;97214.00;;;;5012219;28;20237;-84
2022/01/30 09:38:35;;;;;;;1.80;1.30;;;10.70;78.40;11.10;97229.00;;;;5003779;28;20229;-84
2022/01/30 09:41:06;;;;;;;4.43;1.47;;;10.80;78.10;11.20;97214.00;;;;5016038;28;20308;-84
2022/01/30 09:43:35;;;;;;;7.67;2.07;;;10.90;77.10;11.30;97208.00;;;;5016290;28;20194;-85
2022/01/30 09:46:06;;;;;;;6.13;1.73;;;11.00;77.00;11.30;97204.00;;;;5015990;28;20198;-84
2022/01/30 09:48:38;;;;;;;3.87;1.50;;;11.00;76.90;11.30;97201.00;;;;5002254;28;20597;-84
2022/01/30 09:51:10;;;;;;;4.77;1.73;;;11.10;75.70;11.40;97193.00;;;;4996250;28;20250;-84
2022/01/30 09:53:38;;;;;;;3.57;1.33;;;11.20;76.10;11.40;97196.00;;;;4996841;28;20198;-84
2022/01/30 09:56:06;;;;;;;1.77;1.13;;;11.20;76.00;11.40;97202.00;;;;4996291;28;20203;-84
2022/01/30 09:58:34;;;;;;;3.70;1.90;;;11.30;75.00;11.40;97202.00;;;;4996586;28;20312;-84
2022/01/30 10:01:02;;;;;;;3.57;1.50;;;11.30;74.30;11.40;97203.00;;;;4996402;28;20234;-84
2022/01/30 10:03:29;;;;;;;3.70;1.40;;;11.30;73.60;11.40;97177.00;;;;4996456;28;20209;-85
2022/01/30 10:06:11;;;;;;;3.07;1.50;;;11.30;73.20;11.30;97191.00;;;;5003657;28;20207;-84
2022/01/30 10:08:43;;;;;;;4.30;1.53;;;11.30;71.50;11.30;97208.00;;;;5015215;28;20193;-84
2022/01/30 10:11:29;;;;;;;5.77;2.00;;;11.30;73.20;11.30;97197.00;;;;5015138;28;20216;-84
2022/01/30 10:14:07;;;;;;;5.87;1.77;;;11.20;72.50;11.20;97195.00;;;;5015699;28;20206;-84
2022/01/30 10:16:38;;;;;;;5.47;1.70;;;11.20;71.50;11.20;97196.00;;;;5015275;28;20209;-84
2022/01/30 10:19:11;;;;;;;2.67;1.50;;;11.20;72.50;11.20;97210.00;;;;5011797;28;20229;-85
2022/01/30 10:21:41;;;;;;;4.10;1.57;;;11.10;72.70;11.10;97212.00;;;;5012217;28;20233;-85
2022/01/30 10:24:27;;;;;;;3.20;1.40;;;11.10;73.10;11.20;97214.00;;;;5005263;28;20273;-85
2022/01/30 10:26:59;;;;;;;11.50;2.23;;;11.20;74.00;11.30;97223.00;;;;4997178;28;20620;-84
2022/01/30 10:29:30;;;;;;;6.70;2.03;;;11.20;73.50;11.30;97208.00;;;;5015396;28;20552;-84
2022/01/30 10:32:00;;;;;;;7.67;2.33;;;11.30;73.60;11.30;97223.00;;;;5015492;28;20288;-83
2022/01/30 10:34:27;;;;;;;3.40;1.60;;;11.40;74.40;11.40;97210.00;;;;5015186;28;20210;-84
2022/01/30 10:37:19;;;;;;;5.57;1.70;;;11.50;74.00;11.40;97209.00;;;;5013804;28;20198;-84
2022/01/30 10:40:07;;;;;;;4.00;1.60;;;11.60;72.60;11.50;97216.00;;;;5014734;28;20200;-84
2022/01/30 10:42:41;;;;;;;5.03;1.47;;;11.80;73.40;11.60;97209.00;;;;5014489;28;20226;-84
2022/01/30 10:45:15;;;;;;;3.57;1.50;;;11.90;72.60;11.70;97223.00;;;;5014795;28;20178;-84
2022/01/30 10:47:44;;;;;;;4.43;1.60;;;12.20;73.70;11.80;97209.00;;;;5014510;28;20289;-84
2022/01/30 10:50:15;;;;;;;4.30;1.63;;;12.20;73.10;12.00;97218.00;;;;5013620;28;20610;-84
2022/01/30 10:52:57;;;;;;;2.90;1.50;;;12.30;73.30;12.10;97214.00;;;;5014498;28;20224;-84
2022/01/30 10:55:44;;;;;;;3.67;1.53;;;12.50;71.90;12.30;97241.00;;;;4995212;28;20187;-85
2022/01/30 10:58:15;;;;;;;5.33;1.70;;;12.60;70.80;12.40;97226.00;;;;4995833;28;20620;-84
2022/01/30 11:00:56;;;;;;;4.60;1.40;;;12.60;71.30;12.40;97225.00;;;;4995667;28;20333;-85
2022/01/30 11:03:50;;;;;;;4.53;1.70;;;12.70;70.60;12.40;97213.00;;;;5000307;28;20193;-84
2022/01/30 11:06:18;;;;;;;5.10;2.00;;;12.60;68.40;12.30;97221.00;;;;5015079;28;20193;-84
2022/01/30 11:08:50;;;;;;;4.10;1.30;;;12.60;67.90;12.20;97220.00;;;;5015244;28;20210;-84
2022/01/30 11:11:29;;;;;;;4.30;1.50;;;12.50;68.90;12.10;97233.00;;;;5014078;28;20250;-84
2022/01/30 11:14:15;;;;;;;5.37;1.97;;;12.40;67.90;12.00;97221.00;;;;4995003;28;20190;-84
2022/01/30 11:17:08;;;;;;;3.33;1.63;;;12.30;67.50;11.90;97224.00;;;;4998176;28;20222;-84
2022/01/30 11:19:45;;;;;;;2.70;1.27;;;12.10;69.30;11.80;97216.00;;;;5014361;28;20229;-84
2022/01/30 11:22:19;;;;;;;4.77;2.00;;;12.10;68.20;11.70;97224.00;;;;4996482;28;20222;-83
2022/01/30 11:24:57;;;;;;;5.83;1.60;;;12.00;68.30;11.70;97209.00;;;;4993925;28;20199;-84
2022/01/30 11:27:25;;;;;;;7.27;2.03;;;11.90;68.10;11.70;97197.00;;;;4998280;28;20212;-84
2022/01/30 11:29:53;;;;;;;5.07;1.67;;;11.80;68.10;11.70;97212.00;;;;5013997;28;20562;-83
2022/01/30 11:32:23;;;;;;;4.97;1.70;;;11.80;68.00;11.80;97184.00;;;;5000711;28;20264;-84
2022/01/30 11:34:59;;;;;;;3.53;1.50;;;11.70;68.20;11.90;97188.00;;;;5002384;28;20561;-83
2022/01/30 11:37:30;;;;;;;5.33;2.40;;;11.80;69.40;12.00;97199.00;;;;4996677;28;20206;-83
2022/01/30 11:40:14;;;;;;;3.37;1.73;;;11.80;69.10;12.10;97212.00;;;;5016699;28;20189;-83
2022/01/30 11:42:49;;;;;;;4.20;1.43;;;11.90;68.90;12.10;97201.00;;;;5025991;28;20225;-83